Time;durP1;ratioP1;P1;durP2;ratioP2;P2;SDS_P1;SDS_P2;PMS_P1;PMS_P2;Temp;Humidity;BMP_temperature;BMP_pressure;BME280_temperature;BME280_humidity;BME280_pressure;Samples;Min_cycle;Max_cycle;Signal;HPM_P1;HPM_P2
2023/12/25 00:00:42;;;;;;;8.85;6.03;;;;;;;5.49;50.58;99249.77;1740107;82;21260;-82
2023/12/25 00:03:48;;;;;;;10.32;6.62;;;;;;;5.49;50.56;99247.06;1739763;82;21878;-82
2023/12/25 00:06:54;;;;;;;11.33;6.55;;;;;;;5.42;50.56;99234.36;1739865;81;21296;-82
2023/12/25 00:09:59;;;;;;;13.58;6.15;;;;;;;5.49;50.53;99236.72;1739871;82;21275;-82
2023/12/25 00:13:05;;;;;;;17.30;5.83;;;;;;;5.16;51.11;99235.86;1738831;82;21252;-82
2023/12/25 00:16:11;;;;;;;9.60;5.87;;;;;;;5.43;50.45;99236.90;1731414;82;21312;-82
2023/12/25 00:19:16;;;;;;;14.63;6.45;;;;;;;5.36;50.45;99234.03;1731698;83;21260;-82
2023/12/25 00:22:23;;;;;;;13.30;6.35;;;;;;;5.65;49.86;99238.09;1731694;83;21308;-82
2023/12/25 00:25:29;;;;;;;12.37;7.50;;;;;;;5.75;49.94;99244.69;1731598;83;21275;-82
2023/12/25 00:28:34;;;;;;;10.98;6.78;;;;;;;5.50;49.60;99246.03;1738544;81;21811;-83
2023/12/25 00:31:40;;;;;;;11.43;6.03;;;;;;;5.64;49.79;99239.08;1738631;82;21254;-83
2023/12/25 00:34:45;;;;;;;12.80;6.20;;;;;;;5.53;49.95;99243.51;1738474;82;21263;-83
2023/12/25 00:37:51;;;;;;;13.48;7.00;;;;;;;5.71;49.36;99240.11;1738547;82;21300;-82
2023/12/25 00:40:56;;;;;;;13.98;7.67;;;;;;;5.68;49.56;99243.66;1738176;81;21867;-83
2023/12/25 00:44:02;;;;;;;12.03;6.85;;;;;;;5.93;48.85;99236.36;1748810;81;21839;-83
2023/12/25 00:47:07;;;;;;;13.00;6.58;;;;;;;5.55;49.58;99237.39;1767365;81;21263;-83
2023/12/25 00:50:13;;;;;;;12.90;6.78;;;;;;;5.61;49.49;99238.09;1767496;81;21277;-82
2023/12/25 00:53:18;;;;;;;10.90;6.30;;;;;;;5.44;49.70;99240.45;1767305;81;21347;-83
2023/12/25 00:56:25;;;;;;;13.53;7.97;;;;;;;5.45;49.67;99231.30;1760563;81;21269;-82
2023/12/25 00:59:31;;;;;;;13.95;7.05;;;;;;;5.82;48.99;99228.89;1738556;81;21312;-83
2023/12/25 01:02:38;;;;;;;20.65;7.80;;;;;;;5.83;48.68;99234.67;1738721;82;21296;-82
2023/12/25 01:05:44;;;;;;;13.43;6.53;;;;;;;5.70;49.13;99232.99;1738833;82;21268;-83
2023/12/25 01:08:49;;;;;;;17.17;8.10;;;;;;;4.92;49.29;99229.90;1738594;82;21697;-82
2023/12/25 01:11:56;;;;;;;15.63;7.70;;;;;;;4.99;50.64;99240.43;1733550;81;21874;-82
2023/12/25 01:15:01;;;;;;;13.28;6.47;;;;;;;4.97;50.71;99235.16;1767029;80;21260;-82
2023/12/25 01:18:07;;;;;;;10.08;6.25;;;;;;;5.14;50.49;99238.75;1769113;81;21339;-82
2023/12/25 01:21:13;;;;;;;11.45;6.12;;;;;;;4.52;51.71;99242.33;1769048;81;22190;-83
2023/12/25 01:24:20;;;;;;;10.13;6.40;;;;;;;4.95;50.94;99234.48;1769077;81;21339;-82
2023/12/25 01:27:25;;;;;;;12.20;6.05;;;;;;;4.75;51.63;99235.30;1748776;81;21852;-82
2023/12/25 01:30:31;;;;;;;10.32;6.10;;;;;;;4.87;51.30;99238.02;1738668;82;21283;-83
2023/12/25 01:33:36;;;;;;;11.20;5.55;;;;;;;5.43;50.33;99236.90;1738581;82;21282;-83
2023/12/25 01:36:42;;;;;;;12.03;5.72;;;;;;;4.85;51.65;99244.63;1738589;82;21308;-82
2023/12/25 01:39:47;;;;;;;8.95;5.37;;;;;;;4.54;52.00;99241.64;1738580;82;21883;-83
2023/12/25 01:42:56;;;;;;;13.68;6.42;;;;;;;4.71;51.90;99235.79;1731352;81;21256;-83
2023/12/25 01:46:00;;;;;;;11.93;6.90;;;;;;;4.73;52.02;99226.98;1769019;81;21280;-83
2023/12/25 01:49:07;;;;;;;12.13;6.95;;;;;;;5.04;51.62;99227.22;1768969;81;21287;-83
2023/12/25 01:52:14;;;;;;;11.73;7.28;;;;;;;4.96;51.17;99231.27;1769208;81;21260;-83
2023/12/25 01:55:21;;;;;;;12.65;5.75;;;;;;;5.39;50.55;99228.25;1769077;81;21803;-82
2023/12/25 01:58:27;;;;;;;13.72;6.22;;;;;;;5.44;49.85;99231.80;1769186;81;21743;-82
2023/12/25 02:01:33;;;;;;;11.83;5.80;;;;;;;5.35;49.72;99243.16;1769050;81;21303;-83
2023/12/25 02:04:38;;;;;;;9.28;5.83;;;;;;;5.21;50.21;99242.47;1769072;81;21276;-82
2023/12/25 02:07:46;;;;;;;10.43;5.87;;;;;;;5.37;49.89;99250.63;1769257;81;21252;-82
2023/12/25 02:10:52;;;;;;;13.08;5.90;;;;;;;5.13;50.21;99243.84;1769146;81;21264;-82
2023/12/25 02:13:57;;;;;;;15.58;7.55;;;;;;;5.51;49.60;99236.06;1769106;81;21252;-83
2023/12/25 02:17:03;;;;;;;14.00;8.23;;;;;;;5.03;50.29;99239.89;1774399;80;21319;-83
2023/12/25 02:20:08;;;;;;;21.15;8.70;;;;;;;5.48;49.57;99237.23;1782863;80;21855;-82
2023/12/25 02:23:16;;;;;;;13.05;8.15;;;;;;;5.11;50.47;99230.43;1766496;80;21276;-83
2023/12/25 02:26:22;;;;;;;13.53;7.65;;;;;;;5.41;49.77;99232.17;1775969;80;22280;-83
2023/12/25 02:29:27;;;;;;;15.30;8.68;;;;;;;5.48;49.40;99231.81;1762743;81;21893;-83
2023/12/25 02:32:35;;;;;;;17.82;8.90;;;;;;;5.14;49.61;99226.55;1768900;81;21846;-82
2023/12/25 02:35:42;;;;;;;19.90;9.93;;;;;;;4.99;49.89;99211.97;1749967;81;21248;-83
2023/12/25 02:38:49;;;;;;;16.82;9.45;;;;;;;4.98;49.95;99204.83;1768913;81;21279;-83
2023/12/25 02:41:55;;;;;;;17.80;8.65;;;;;;;5.09;49.77;99209.95;1768796;81;21248;-82
2023/12/25 02:45:00;;;;;;;20.50;9.45;;;;;;;5.17;49.00;99208.58;1771948;80;22109;-82
2023/12/25 02:48:06;;;;;;;19.35;8.55;;;;;;;5.08;48.43;99201.45;1782540;80;21255;-82
2023/12/25 02:51:12;;;;;;;18.40;8.68;;;;;;;4.84;48.66;99205.82;1782414;80;21279;-82
2023/12/25 02:54:17;;;;;;;17.40;8.63;;;;;;;4.60;48.77;99203.06;1782345;80;21326;-82
2023/12/25 02:57:22;;;;;;;18.98;9.48;;;;;;;4.55;48.79;99209.48;1782264;80;21260;-83
2023/12/25 03:00:28;;;;;;;15.25;8.43;;;;;;;4.52;48.64;99206.61;1753214;82;21299;-83
2023/12/25 03:03:33;;;;;;;16.25;10.08;;;;;;;4.20;49.58;99203.27;1753248;82;21291;-82
2023/12/25 03:06:40;;;;;;;14.28;8.43;;;;;;;4.49;48.97;99208.80;1753340;82;21294;-82
2023/12/25 03:09:46;;;;;;;13.25;9.05;;;;;;;4.04;49.90;99207.23;1753237;82;21604;-82
2023/12/25 03:12:53;;;;;;;16.40;9.63;;;;;;;3.94;50.09;99202.45;1752959;80;21843;-82
2023/12/25 03:15:58;;;;;;;19.77;10.50;;;;;;;4.16;49.49;99188.36;1753124;82;21941;-82
2023/12/25 03:19:03;;;;;;;17.40;10.40;;;;;;;4.16;49.28;99188.36;1735116;82;21331;-82
2023/12/25 03:22:10;;;;;;;16.30;9.83;;;;;;;3.83;49.91;99177.37;1731436;83;21269;-83
2023/12/25 03:25:16;;;;;;;23.20;12.03;;;;;;;3.76;49.74;99179.02;1731544;83;21339;-82
2023/12/25 03:28:23;;;;;;;34.53;16.52;;;;;;;3.60;50.03;99185.69;1731627;83;21268;-82
2023/12/25 03:31:30;;;;;;;101.20;38.40;;;;;;;3.91;49.52;99182.00;1731613;83;21260;-82
2023/12/25 03:34:35;;;;;;;95.25;33.85;;;;;;;3.93;49.32;99179.96;1731679;83;21276;-82
2023/12/25 03:37:40;;;;;;;40.88;16.60;;;;;;;3.88;48.88;99180.95;1731606;83;21276;-82
2023/12/25 03:40:45;;;;;;;112.28;25.48;;;;;;;4.04;48.33;99174.77;1731385;83;21894;-82
2023/12/25 03:43:51;;;;;;;48.80;15.45;;;;;;;3.93;48.05;99162.89;1735593;81;21256;-83
2023/12/25 03:46:56;;;;;;;28.75;11.50;;;;;;;3.87;48.18;99166.25;1770292;81;21283;-82
2023/12/25 03:50:03;;;;;;;20.55;9.43;;;;;;;3.83;48.36;99173.83;1770376;81;21272;-83
2023/12/25 03:53:10;;;;;;;19.87;9.35;;;;;;;3.60;48.81;99174.88;1770482;81;21815;-82
2023/12/25 03:56:11;;;;;;;23.35;10.70;;;;;;;3.58;48.51;99175.55;1770398;81;21315;-82
2023/12/25 03:59:11;;;;;;;21.25;9.45;;;;;;;3.41;48.78;99171.03;1770382;81;21240;-82
2023/12/25 04:02:17;;;;;;;19.75;10.10;;;;;;;3.51;49.43;99171.77;1770187;81;21860;-82
2023/12/25 04:05:23;;;;;;;16.57;9.33;;;;;;;3.67;49.26;99155.66;1770170;81;21300;-82
2023/12/25 04:08:31;;;;;;;19.17;8.65;;;;;;;4.05;49.04;99161.60;1770251;81;21265;-82
2023/12/25 04:11:37;;;;;;;21.07;11.50;;;;;;;4.20;48.67;99162.67;1769629;81;21839;-83
2023/12/25 04:14:49;;;;;;;31.05;19.42;;;;;;;4.21;48.73;99169.77;1762534;81;21244;-82
2023/12/25 04:17:55;;;;;;;34.58;18.92;;;;;;;4.18;48.95;99179.56;1760353;81;21844;-82
2023/12/25 04:21:01;;;;;;;22.25;12.98;;;;;;;3.70;49.77;99181.02;1763469;81;21287;-83
2023/12/25 04:24:08;;;;;;;21.37;10.85;;;;;;;4.13;48.88;99177.01;1763593;81;21279;-82
2023/12/25 04:27:14;;;;;;;19.75;10.72;;;;;;;3.80;49.03;99176.84;1763313;81;21884;-82
2023/12/25 04:30:19;;;;;;;23.02;11.50;;;;;;;3.72;49.10;99175.47;1745255;82;21314;-82
2023/12/25 04:33:27;;;;;;;17.90;9.43;;;;;;;3.81;49.09;99174.00;1745099;82;21258;-82
2023/12/25 04:36:32;;;;;;;220.90;78.37;;;;;;;3.75;49.00;99161.60;1744988;82;21258;-82
2023/12/25 04:39:37;;;;;;;78.57;29.50;;;;;;;3.62;48.86;99139.55;1745216;82;21723;-83
2023/12/25 04:42:43;;;;;;;33.80;15.68;;;;;;;3.52;49.12;99121.59;1743958;82;21291;-82
2023/12/25 04:45:49;;;;;;;23.77;12.07;;;;;;;3.46;49.37;99111.42;1775978;81;21785;-83
2023/12/25 04:48:54;;;;;;;21.23;10.00;;;;;;;3.59;49.11;99110.48;1775986;81;21241;-82
2023/12/25 04:52:00;;;;;;;20.35;9.58;;;;;;;3.25;49.33;99125.33;1776136;81;21282;-82
2023/12/25 04:55:06;;;;;;;18.57;10.20;;;;;;;3.22;49.32;99144.55;1776006;81;22171;-83
2023/12/25 04:58:11;;;;;;;17.85;9.53;;;;;;;3.35;49.55;99175.73;1775569;81;21287;-82
2023/12/25 05:01:10;;;;;;;20.85;9.65;;;;;;;3.32;49.94;99165.56;1775786;81;21362;-82
2023/12/25 05:04:03;;;;;;;21.23;10.20;;;;;;;3.44;49.89;99163.46;1776046;81;21282;-83
2023/12/25 05:07:08;;;;;;;22.98;12.18;;;;;;;3.64;50.24;99153.27;1775952;81;21267;-82
2023/12/25 05:10:13;;;;;;;21.20;9.68;;;;;;;4.03;49.66;99146.02;1775748;81;21247;-83
2023/12/25 05:13:19;;;;;;;19.27;9.78;;;;;;;3.55;51.05;99133.95;1774494;81;21849;-82
2023/12/25 05:16:24;;;;;;;18.27;10.18;;;;;;;3.50;51.55;99128.17;1775980;81;21802;-83
2023/12/25 05:19:29;;;;;;;15.68;9.25;;;;;;;3.62;51.74;99121.47;1776796;80;21275;-83
2023/12/25 05:22:35;;;;;;;17.30;8.83;;;;;;;3.75;51.49;99124.58;1784282;80;21284;-82
2023/12/25 05:25:41;;;;;;;15.05;8.38;;;;;;;4.24;50.55;99116.67;1784246;80;21264;-83
2023/12/25 05:28:47;;;;;;;17.42;8.38;;;;;;;4.09;50.78;99108.82;1783826;80;21303;-82
2023/12/25 05:31:53;;;;;;;14.28;8.65;;;;;;;4.42;50.28;99100.78;1766099;80;21236;-82
2023/12/25 05:34:58;;;;;;;18.10;8.70;;;;;;;4.42;50.31;99096.22;1716264;83;21821;-82
2023/12/25 05:38:04;;;;;;;26.30;13.05;;;;;;;4.35;50.64;99097.91;1716215;83;21291;-83
2023/12/25 05:41:09;;;;;;;35.95;16.45;;;;;;;4.96;49.79;99094.41;1698250;84;21904;-82
2023/12/25 05:44:15;;;;;;;28.45;13.32;;;;;;;4.59;51.02;99097.10;1703074;83;21588;-82
2023/12/25 05:47:14;;;;;;;21.62;10.65;;;;;;;5.07;50.30;99095.41;1713842;83;21305;-82
2023/12/25 05:50:10;;;;;;;20.02;10.10;;;;;;;5.12;49.96;99087.61;1711112;84;21354;-83
2023/12/25 05:52:56;;;;;;;23.65;12.25;;;;;;;5.46;49.39;99090.11;1711789;84;22406;-82
2023/12/25 05:55:49;;;;;;;18.25;10.48;;;;;;;5.06;49.79;99096.44;1687492;85;21307;-83
2023/12/25 05:58:35;;;;;;;15.63;9.98;;;;;;;5.14;50.48;99101.86;1691157;84;21311;-83
2023/12/25 06:01:29;;;;;;;25.20;11.63;;;;;;;5.45;49.89;99099.25;1693488;82;21590;-83
2023/12/25 06:04:35;;;;;;;25.48;11.35;;;;;;;5.68;49.58;99110.72;1701915;82;21849;-83
2023/12/25 06:07:41;;;;;;;16.73;9.20;;;;;;;5.47;50.17;99105.36;1706747;84;21840;-82
2023/12/25 06:10:41;;;;;;;14.90;8.88;;;;;;;5.56;50.17;99094.83;1706640;84;21293;-83
2023/12/25 06:13:47;;;;;;;20.45;10.75;;;;;;;5.63;49.98;99105.30;1709034;83;21302;-82
2023/12/25 06:16:53;;;;;;;25.27;12.25;;;;;;;5.69;49.96;99109.19;1727828;82;21873;-83
2023/12/25 06:19:58;;;;;;;22.40;9.78;;;;;;;5.88;50.03;99118.30;1735028;82;21295;-83
2023/12/25 06:23:04;;;;;;;16.17;8.95;;;;;;;6.20;49.38;99113.77;1706607;83;21323;-82
2023/12/25 06:26:10;;;;;;;16.42;8.23;;;;;;;6.01;50.00;99091.12;1687928;84;21340;-83
2023/12/25 06:29:16;;;;;;;16.67;8.70;;;;;;;5.90;50.28;99097.25;1691646;83;21336;-83
2023/12/25 06:32:21;;;;;;;19.45;9.60;;;;;;;5.93;50.08;99102.01;1690597;83;21268;-83
2023/12/25 06:35:28;;;;;;;14.68;8.68;;;;;;;5.90;50.46;99087.75;1693067;83;21282;-83
2023/12/25 06:38:33;;;;;;;15.08;8.23;;;;;;;5.72;50.99;99092.56;1692016;84;21252;-83
2023/12/25 06:41:32;;;;;;;20.70;9.90;;;;;;;5.73;51.06;99091.54;1681453;84;21291;-83
2023/12/25 06:44:38;;;;;;;26.20;12.13;;;;;;;6.30;50.08;99080.95;1691854;83;21250;-83
2023/12/25 06:47:43;;;;;;;22.50;11.68;;;;;;;6.81;49.35;99093.00;1698834;82;21961;-84
2023/12/25 06:50:50;;;;;;;25.77;13.18;;;;;;;6.77;49.46;99077.23;1681668;85;21865;-83
2023/12/25 06:53:57;;;;;;;21.85;12.03;;;;;;;6.51;50.29;99073.02;1689312;83;21688;-83
2023/12/25 06:57:02;;;;;;;25.40;10.78;;;;;;;6.92;49.52;99057.77;1686869;83;21869;-83
2023/12/25 07:00:08;;;;;;;26.33;14.00;;;;;;;6.87;49.74;99065.11;1679295;84;21649;-83
2023/12/25 07:03:14;;;;;;;20.10;10.82;;;;;;;7.01;49.75;99057.16;1693268;83;21928;-83
2023/12/25 07:06:20;;;;;;;25.92;12.15;;;;;;;6.91;49.86;99054.17;1699088;82;22478;-83
2023/12/25 07:09:27;;;;;;;19.73;10.05;;;;;;;7.05;50.15;99047.61;1694443;83;21354;-84
2023/12/25 07:12:33;;;;;;;18.92;10.25;;;;;;;6.87;50.51;99043.89;1680819;84;21299;-83
2023/12/25 07:15:38;;;;;;;17.82;9.63;;;;;;;6.36;51.78;99056.66;1699438;82;21333;-83
2023/12/25 07:18:46;;;;;;;15.93;9.55;;;;;;;6.82;51.19;99040.36;1698352;83;21888;-83
2023/12/25 07:21:52;;;;;;;14.43;8.95;;;;;;;6.85;51.17;99030.45;1680113;83;21328;-84
2023/12/25 07:24:57;;;;;;;13.05;8.28;;;;;;;6.91;51.23;99018.84;1674132;83;21356;-84
2023/12/25 07:28:03;;;;;;;18.20;8.43;;;;;;;6.69;51.98;99018.91;1691474;83;22672;-83
2023/12/25 07:31:10;;;;;;;15.10;9.68;;;;;;;7.21;51.00;99018.91;1679917;83;21297;-83
2023/12/25 07:34:17;;;;;;;14.85;8.70;;;;;;;7.25;50.75;99006.63;1693415;83;21260;-83
2023/12/25 07:37:25;;;;;;;20.57;8.98;;;;;;;7.42;50.75;98994.52;1694287;83;21285;-83
2023/12/25 07:40:32;;;;;;;12.78;8.20;;;;;;;7.51;50.70;99002.59;1669591;85;21312;-83
2023/12/25 07:43:38;;;;;;;16.40;9.03;;;;;;;7.82;49.97;98999.66;1690560;83;21298;-83
2023/12/25 07:46:44;;;;;;;13.72;8.35;;;;;;;8.04;49.81;98996.44;1694084;83;21351;-84
2023/12/25 07:49:50;;;;;;;15.10;7.60;;;;;;;8.13;49.99;98994.77;1696696;83;21915;-83
2023/12/25 07:52:56;;;;;;;12.07;8.05;;;;;;;7.14;51.92;98992.95;1696439;83;22520;-83
2023/12/25 07:56:02;;;;;;;13.65;8.23;;;;;;;7.09;52.26;98990.47;1698840;83;21305;-84
2023/12/25 07:59:06;;;;;;;13.40;8.48;;;;;;;7.20;52.39;98989.16;1686834;83;21324;-84
2023/12/25 08:02:12;;;;;;;13.65;8.08;;;;;;;6.82;53.12;98987.36;1699984;83;21309;-84
2023/12/25 08:05:18;;;;;;;13.88;7.72;;;;;;;7.20;52.53;98975.08;1696480;83;21291;-84
2023/12/25 08:08:24;;;;;;;16.10;8.45;;;;;;;7.33;52.15;98976.59;1691974;83;21315;-84
2023/12/25 08:11:29;;;;;;;14.18;8.05;;;;;;;7.57;51.66;98964.56;1692149;83;21338;-84
2023/12/25 08:14:35;;;;;;;14.85;7.53;;;;;;;7.71;51.21;98962.86;1686858;83;21316;-84
2023/12/25 08:17:42;;;;;;;9.90;6.70;;;;;;;7.38;51.57;98959.19;1682960;83;21959;-84
2023/12/25 08:20:48;;;;;;;12.30;6.85;;;;;;;7.16;52.69;98942.48;1690259;83;21352;-84
2023/12/25 08:23:53;;;;;;;11.20;7.08;;;;;;;7.58;51.82;98933.63;1696842;83;21363;-84
2023/12/25 08:27:00;;;;;;;9.65;6.50;;;;;;;7.60;51.54;98924.73;1711838;82;21303;-84
2023/12/25 08:30:07;;;;;;;11.12;7.08;;;;;;;7.72;51.52;98923.74;1708721;81;21297;-84
2023/12/25 08:33:13;;;;;;;13.53;6.92;;;;;;;7.69;51.54;98911.87;1709657;82;21336;-84
2023/12/25 08:36:19;;;;;;;13.88;6.72;;;;;;;7.67;51.46;98905.78;1709103;83;21345;-84
2023/12/25 08:39:19;;;;;;;16.37;7.53;;;;;;;7.54;51.52;98896.10;1704281;82;21305;-85
2023/12/25 08:42:25;;;;;;;11.30;7.55;;;;;;;7.10;52.58;98882.03;1745794;81;21280;-84
2023/12/25 08:45:30;;;;;;;12.30;7.35;;;;;;;6.98;53.30;98871.33;1714313;81;21358;-84
2023/12/25 08:48:34;;;;;;;12.93;7.65;;;;;;;7.03;53.58;98860.73;1745250;81;21280;-84
2023/12/25 08:51:45;;;;;;;12.60;6.75;;;;;;;7.14;53.20;98843.91;1742896;81;21293;-84
2023/12/25 08:54:51;;;;;;;10.93;7.45;;;;;;;7.41;52.85;98834.20;1753239;81;21291;-84
2023/12/25 08:57:56;;;;;;;10.65;7.42;;;;;;;7.29;53.00;98822.13;1758484;80;21306;-84
2023/12/25 09:01:04;;;;;;;11.65;7.58;;;;;;;7.34;52.86;98824.63;1745676;81;21324;-84
2023/12/25 09:04:09;;;;;;;12.43;7.45;;;;;;;7.47;52.66;98809.47;1745760;80;21645;-84
2023/12/25 09:07:15;;;;;;;10.35;6.90;;;;;;;7.25;53.21;98799.94;1752377;81;22717;-85
2023/12/25 09:10:08;;;;;;;14.35;7.53;;;;;;;7.35;53.12;98791.46;1744932;80;21913;-84
2023/12/25 09:13:14;;;;;;;13.68;9.08;;;;;;;7.31;53.24;98801.88;1754102;79;21291;-84
2023/12/25 09:16:19;;;;;;;15.18;8.70;;;;;;;7.50;52.94;98790.05;1711687;82;21350;-85
2023/12/25 09:19:25;;;;;;;14.90;8.98;;;;;;;7.66;52.70;98791.98;1747262;80;21855;-85
2023/12/25 09:22:27;;;;;;;16.70;9.85;;;;;;;7.79;52.63;98790.42;1723529;82;21307;-85
2023/12/25 09:25:26;;;;;;;14.58;8.08;;;;;;;8.06;51.94;98777.89;1746820;79;21960;-86
2023/12/25 09:28:31;;;;;;;13.13;7.78;;;;;;;8.20;51.61;98776.95;1750936;80;21275;-85
2023/12/25 09:31:37;;;;;;;16.07;8.15;;;;;;;8.02;52.40;98769.80;1749237;80;21364;-85
2023/12/25 09:34:42;;;;;;;14.28;8.03;;;;;;;8.17;52.33;98754.19;1754859;80;21331;-85
2023/12/25 09:37:50;;;;;;;13.85;7.90;;;;;;;8.10;52.68;98743.27;1756825;81;21284;-85
2023/12/25 09:40:57;;;;;;;14.90;8.75;;;;;;;8.14;52.82;98743.19;1717767;82;21307;-85
2023/12/25 09:44:02;;;;;;;13.03;8.80;;;;;;;8.33;52.87;98737.55;1759554;81;21995;-85
2023/12/25 09:47:08;;;;;;;12.90;7.75;;;;;;;8.52;52.66;98727.00;1754008;81;22580;-85
2023/12/25 09:50:13;;;;;;;11.78;7.83;;;;;;;8.53;52.67;98724.59;1761055;80;22324;-86
2023/12/25 09:53:19;;;;;;;14.70;7.92;;;;;;;8.57;52.86;98717.70;1754292;81;21279;-86
2023/12/25 09:56:27;;;;;;;13.38;8.88;;;;;;;8.50;53.31;98715.45;1758116;81;21293;-86
2023/12/25 09:59:34;;;;;;;11.12;7.83;;;;;;;8.59;53.50;98714.23;1752842;81;21310;-86
2023/12/25 10:02:48;;;;;;;13.75;8.55;;;;;;;8.60;53.57;98703.12;1753089;81;22246;-85
2023/12/25 10:05:55;;;;;;;16.35;10.05;;;;;;;8.46;53.89;98698.66;1749049;80;21294;-85
2023/12/25 10:09:03;;;;;;;16.37;10.32;;;;;;;8.52;53.89;98676.06;1762118;79;21851;-84
2023/12/25 10:12:09;;;;;;;16.35;10.38;;;;;;;8.67;53.67;98657.67;1754449;81;21877;-84
2023/12/25 10:15:15;;;;;;;13.60;8.98;;;;;;;8.39;54.49;98651.47;1757265;80;21288;-84
2023/12/25 10:18:23;;;;;;;13.65;7.75;;;;;;;8.74;53.90;98622.77;1741509;81;21857;-83
2023/12/25 10:21:30;;;;;;;14.25;8.45;;;;;;;8.81;53.64;98611.38;1739313;81;21300;-83
2023/12/25 10:24:38;;;;;;;13.00;9.23;;;;;;;9.07;53.17;98601.02;1750062;80;21296;-84
2023/12/25 10:27:48;;;;;;;12.73;8.68;;;;;;;9.12;53.06;98593.88;1767478;80;21338;-83
2023/12/25 10:30:56;;;;;;;14.68;9.10;;;;;;;9.20;53.21;98586.03;1776897;80;21744;-84
2023/12/25 10:34:06;;;;;;;11.90;7.15;;;;;;;9.14;53.63;98568.62;1762839;79;21254;-83
2023/12/25 10:37:15;;;;;;;15.10;6.83;;;;;;;9.50;52.86;98565.12;1774926;79;21276;-84
2023/12/25 10:40:32;;;;;;;9.93;6.62;;;;;;;9.45;52.96;98573.42;1757475;80;21261;-84
2023/12/25 10:43:39;;;;;;;14.28;9.35;;;;;;;9.56;52.98;98567.87;1777346;79;21251;-83
2023/12/25 10:46:44;;;;;;;13.05;6.40;;;;;;;9.75;52.75;98557.96;1779062;79;21243;-84
2023/12/25 10:49:50;;;;;;;10.53;6.33;;;;;;;9.41;53.73;98559.91;1773573;80;21256;-83
2023/12/25 10:52:57;;;;;;;9.85;4.25;;;;;;;9.68;53.65;98544.83;1774786;80;21255;-84
2023/12/25 10:56:03;;;;;;;7.50;5.05;;;;;;;9.92;53.47;98545.50;1763636;80;21259;-83
2023/12/25 10:59:33;;;;;;;7.80;4.45;;;;;;;10.05;52.98;98537.80;1774095;79;21299;-83
2023/12/25 11:02:41;;;;;;;10.10;4.15;;;;;;;9.77;53.79;98534.00;1735659;82;21275;-83
2023/12/25 11:05:48;;;;;;;6.00;4.47;;;;;;;10.00;53.51;98521.22;1709965;83;21268;-83
2023/12/25 11:08:54;;;;;;;6.12;4.22;;;;;;;10.04;53.50;98523.00;1708709;83;21346;-83
2023/12/25 11:12:01;;;;;;;7.08;3.75;;;;;;;10.34;52.76;98526.87;1718913;83;21335;-83
2023/12/25 11:15:07;;;;;;;5.58;3.40;;;;;;;10.33;52.63;98518.90;1724787;81;21317;-83
2023/12/25 11:18:12;;;;;;;7.00;3.35;;;;;;;10.18;52.87;98509.59;1714743;82;21287;-83
2023/12/25 11:21:19;;;;;;;5.47;3.35;;;;;;;10.15;53.09;98510.02;1714956;82;21290;-83
2023/12/25 11:24:26;;;;;;;8.20;3.87;;;;;;;10.43;52.52;98499.59;1715401;82;21285;-83
2023/12/25 11:27:36;;;;;;;5.60;3.70;;;;;;;10.40;52.70;98482.82;1712542;82;21315;-83
2023/12/25 11:30:41;;;;;;;5.37;3.60;;;;;;;10.44;52.32;98471.23;1698690;82;21721;-83
2023/12/25 11:33:55;;;;;;;5.17;3.37;;;;;;;10.72;51.83;98471.33;1715857;82;21295;-83
2023/12/25 11:37:06;;;;;;;5.65;3.27;;;;;;;10.96;51.83;98465.55;1713555;82;21274;-83
2023/12/25 11:40:12;;;;;;;7.03;3.90;;;;;;;11.03;51.62;98466.88;1723531;82;21288;-83
2023/12/25 11:43:20;;;;;;;5.80;3.17;;;;;;;11.09;51.54;98459.97;1704739;82;21252;-83
2023/12/25 11:46:25;;;;;;;5.12;3.15;;;;;;;10.90;51.97;98450.88;1721477;82;21329;-84
2023/12/25 11:49:34;;;;;;;5.37;3.60;;;;;;;10.66;52.49;98452.55;1722083;82;21269;-83
2023/12/25 11:52:55;;;;;;;6.17;3.83;;;;;;;10.87;52.30;98455.45;1698969;82;21260;-83
2023/12/25 11:56:02;;;;;;;4.87;3.42;;;;;;;10.71;52.30;98438.21;1721434;82;21280;-83
2023/12/25 11:59:08;;;;;;;10.40;4.30;;;;;;;10.90;52.18;98421.33;1695615;82;21288;-83
2023/12/25 12:02:16;;;;;;;7.35;4.45;;;;;;;11.22;51.37;98424.81;1718347;82;21246;-83
2023/12/25 12:05:22;;;;;;;8.70;5.10;;;;;;;11.07;51.77;98425.70;1693909;81;21890;-83
2023/12/25 12:08:29;;;;;;;8.25;5.50;;;;;;;11.08;51.75;98420.00;1717799;82;21300;-82
2023/12/25 12:11:34;;;;;;;8.45;5.08;;;;;;;10.95;51.99;98420.95;1724626;81;21314;-83
2023/12/25 12:14:41;;;;;;;13.88;6.22;;;;;;;10.56;52.91;98418.03;1717163;82;21890;-83
2023/12/25 12:17:47;;;;;;;8.78;5.05;;;;;;;10.09;54.34;98416.12;1715030;82;21319;-83
2023/12/25 12:20:53;;;;;;;12.70;6.70;;;;;;;9.59;55.83;98415.92;1720683;81;21359;-82
2023/12/25 12:24:00;;;;;;;13.53;6.05;;;;;;;10.06;54.92;98417.08;1718163;82;21302;-82
2023/12/25 12:27:16;;;;;;;11.48;6.40;;;;;;;9.85;55.31;98425.91;1705264;83;21288;-82
2023/12/25 12:30:21;;;;;;;13.88;6.40;;;;;;;9.84;55.46;98432.44;1693292;83;21901;-83
2023/12/25 12:33:27;;;;;;;12.93;6.37;;;;;;;10.07;54.84;98430.53;1661563;84;21934;-82
2023/12/25 12:36:34;;;;;;;14.55;7.10;;;;;;;9.78;55.70;98430.55;1676651;83;21299;-82
2023/12/25 12:39:41;;;;;;;11.05;6.92;;;;;;;8.18;60.46;98453.55;1678910;83;21284;-83
2023/12/25 12:42:47;;;;;;;10.15;6.70;;;;;;;7.88;62.33;98447.09;1678121;83;21303;-82
2023/12/25 12:45:55;;;;;;;9.58;6.95;;;;;;;8.11;61.99;98460.88;1677513;85;21313;-83
2023/12/25 12:49:01;;;;;;;11.33;6.72;;;;;;;8.22;62.26;98461.63;1683672;83;21315;-82
2023/12/25 12:52:07;;;;;;;17.67;7.70;;;;;;;8.39;62.06;98459.41;1664731;83;21318;-83
2023/12/25 12:55:13;;;;;;;15.00;7.78;;;;;;;9.17;60.03;98465.92;1690695;84;21646;-83
2023/12/25 12:58:22;;;;;;;10.50;7.17;;;;;;;8.73;61.16;98469.28;1707427;83;21873;-82
2023/12/25 13:01:30;;;;;;;14.17;7.90;;;;;;;8.33;62.48;98458.32;1699669;83;21280;-83
2023/12/25 13:04:35;;;;;;;15.28;7.53;;;;;;;8.02;63.55;98468.92;1669805;85;21962;-82
2023/12/25 13:07:41;;;;;;;14.98;7.50;;;;;;;8.04;63.80;98455.92;1703708;84;21310;-82
2023/12/25 13:10:48;;;;;;;15.90;8.05;;;;;;;8.09;63.80;98458.87;1698142;84;21321;-82
2023/12/25 13:13:53;;;;;;;12.73;6.10;;;;;;;8.07;63.99;98429.13;1679440;85;21283;-83
2023/12/25 13:16:59;;;;;;;16.95;6.72;;;;;;;8.39;63.45;98444.42;1674947;84;21347;-82
2023/12/25 13:20:06;;;;;;;12.75;7.53;;;;;;;8.19;64.19;98438.39;1675425;85;21345;-82
2023/12/25 13:23:11;;;;;;;12.63;7.45;;;;;;;8.24;64.18;98448.66;1680683;85;21295;-82
2023/12/25 13:26:18;;;;;;;14.63;7.97;;;;;;;8.54;63.28;98456.48;1686326;84;21644;-83
2023/12/25 13:29:24;;;;;;;13.20;7.15;;;;;;;8.53;63.38;98452.09;1685968;82;21995;-83
2023/12/25 13:32:28;;;;;;;14.53;7.65;;;;;;;8.62;62.81;98448.11;1721892;82;21350;-82
2023/12/25 13:35:35;;;;;;;19.55;7.15;;;;;;;8.67;62.81;98446.95;1717952;82;22265;-83
2023/12/25 13:38:41;;;;;;;9.25;6.40;;;;;;;8.75;62.52;98447.25;1724217;82;21294;-83
2023/12/25 13:41:48;;;;;;;11.95;7.20;;;;;;;8.38;63.68;98440.86;1722964;82;21326;-82
2023/12/25 13:44:55;;;;;;;18.17;8.00;;;;;;;9.52;60.58;98438.33;1719682;82;21298;-82
2023/12/25 13:48:02;;;;;;;12.13;6.83;;;;;;;9.81;59.54;98432.02;1704288;84;21870;-82
2023/12/25 13:51:08;;;;;;;13.03;7.95;;;;;;;9.51;60.39;98435.30;1691483;83;21275;-82
2023/12/25 13:54:14;;;;;;;10.98;6.78;;;;;;;9.53;60.19;98434.55;1685480;85;21341;-82
2023/12/25 13:57:20;;;;;;;14.43;7.60;;;;;;;9.89;58.92;98435.34;1691770;84;21960;-83
2023/12/25 14:00:25;;;;;;;10.60;6.58;;;;;;;9.82;59.18;98422.23;1698011;83;21289;-82
2023/12/25 14:03:31;;;;;;;12.68;7.10;;;;;;;10.24;58.11;98428.14;1725155;83;21824;-82
2023/12/25 14:06:37;;;;;;;15.18;7.60;;;;;;;10.39;57.80;98431.39;1732525;82;21311;-83
2023/12/25 14:09:45;;;;;;;11.08;6.85;;;;;;;10.33;57.94;98432.28;1714714;83;21408;-83
2023/12/25 14:12:50;;;;;;;12.43;6.37;;;;;;;10.30;57.98;98429.98;1734735;82;21342;-83
2023/12/25 14:15:56;;;;;;;11.53;6.50;;;;;;;10.54;57.32;98424.77;1712243;83;21289;-82
2023/12/25 14:19:02;;;;;;;15.70;7.20;;;;;;;10.47;57.40;98427.03;1703550;84;21331;-83
2023/12/25 14:22:09;;;;;;;12.80;7.05;;;;;;;10.32;57.97;98433.34;1703107;84;21944;-83
2023/12/25 14:25:15;;;;;;;14.07;6.92;;;;;;;10.45;57.38;98440.09;1714457;83;21319;-83
2023/12/25 14:28:22;;;;;;;10.95;7.42;;;;;;;10.15;58.31;98443.08;1735680;82;21280;-83
2023/12/25 14:31:27;;;;;;;12.73;7.22;;;;;;;9.98;59.02;98451.80;1738026;82;21274;-82